Time;durP1;ratioP1;P1;durP2;ratioP2;P2;SDS_P1;SDS_P2;PMS_P1;PMS_P2;Temp;Humidity;BMP_temperature;BMP_pressure;BME280_temperature;BME280_humidity;BME280_pressure;Samples;Min_cycle;Max_cycle;Signal;HPM_P1;HPM_P2
2021/03/01 00:01:44;;;;;;;1.38;0.50;;;;;;;0.93;53.04;103740.81;5042494;28;20036;-67
2021/03/01 00:04:10;;;;;;;10.38;1.00;;;;;;;0.54;53.14;103745.84;5047096;28;20403;-69
2021/03/01 00:06:35;;;;;;;8.00;0.57;;;;;;;0.80;53.12;103741.94;5041699;28;20036;-66
2021/03/01 00:09:01;;;;;;;32.85;2.40;;;;;;;0.75;53.31;103735.69;5042679;28;20095;-68
2021/03/01 00:11:26;;;;;;;33.17;1.65;;;;;;;0.65;53.29;103742.09;5039683;28;20041;-67
2021/03/01 00:13:52;;;;;;;1.95;0.80;;;;;;;0.68;53.35;103737.09;5044429;28;20032;-67
2021/03/01 00:16:17;;;;;;;2.53;1.10;;;;;;;0.80;53.43;103741.06;5042626;28;20087;-67
2021/03/01 00:18:42;;;;;;;3.50;1.65;;;;;;;1.03;53.12;103736.97;5040252;28;20064;-67
2021/03/01 00:21:08;;;;;;;17.92;1.55;;;;;;;1.00;53.13;103737.72;5042426;28;20048;-66
2021/03/01 00:23:33;;;;;;;2.95;0.98;;;;;;;0.88;53.24;103731.97;5040409;28;20068;-69
2021/03/01 00:25:59;;;;;;;2.20;1.30;;;;;;;0.93;53.53;103740.81;5047291;28;20039;-67
2021/03/01 00:28:24;;;;;;;7.20;1.63;;;;;;;0.88;52.82;103734.56;5041871;28;20033;-67
2021/03/01 00:30:50;;;;;;;12.80;2.20;;;;;;;0.71;53.33;103730.34;5043383;28;20029;-65
2021/03/01 00:33:15;;;;;;;27.42;4.20;;;;;;;0.64;53.53;103737.75;5040447;28;20445;-66
2021/03/01 00:35:41;;;;;;;2.78;1.52;;;;;;;0.73;54.22;103728.72;5031475;28;20036;-68
2021/03/01 00:38:06;;;;;;;2.55;1.20;;;;;;;0.80;54.03;103734.22;5041720;28;20033;-68
2021/03/01 00:40:32;;;;;;;18.35;2.03;;;;;;;0.64;53.45;103732.63;5046417;28;20032;-66
2021/03/01 00:42:58;;;;;;;10.48;2.63;;;;;;;0.74;53.51;103727.91;5041812;28;20037;-67
2021/03/01 00:45:23;;;;;;;11.40;2.17;;;;;;;0.81;54.12;103724.78;5043075;28;20036;-67
2021/03/01 00:47:49;;;;;;;9.23;1.85;;;;;;;0.85;53.59;103727.56;5043858;28;20040;-67
2021/03/01 00:50:14;;;;;;;16.98;2.45;;;;;;;0.95;52.75;103725.41;5042413;28;20437;-66
2021/03/01 00:52:41;;;;;;;3.90;1.98;;;;;;;0.88;53.25;103716.53;5046076;28;20490;-67
2021/03/01 00:55:08;;;;;;;4.03;1.52;;;;;;;0.95;53.52;103728.91;5042982;28;20414;-68
2021/03/01 00:57:33;;;;;;;2.85;1.15;;;;;;;0.89;53.42;103718.31;5059072;28;20033;-67
2021/03/01 01:00:00;;;;;;;2.83;1.13;;;;;;;0.99;53.72;103720.50;5044734;28;20024;-67
2021/03/01 01:02:26;;;;;;;5.03;1.75;;;;;;;1.03;53.52;103713.78;5026417;28;20087;-65
2021/03/01 01:05:14;;;;;;;5.78;1.38;;;;;;;0.75;53.58;103714.19;5048304;28;20041;-67
2021/03/01 01:07:40;;;;;;;5.55;2.15;;;;;;;0.96;53.68;103714.31;5048001;28;20444;-66
2021/03/01 01:10:06;;;;;;;4.65;1.90;;;;;;;0.82;54.05;103718.84;5034154;28;20041;-66
2021/03/01 01:12:38;;;;;;;2.40;1.63;;;;;;;0.95;53.84;103720.25;5032465;28;20477;-65
2021/03/01 01:15:08;;;;;;;4.40;2.08;;;;;;;1.02;53.92;103712.03;5048867;28;20041;-67
2021/03/01 01:17:34;;;;;;;4.25;2.38;;;;;;;1.09;53.79;103714.06;5046953;28;20030;-67
2021/03/01 01:19:59;;;;;;;3.75;1.98;;;;;;;0.78;53.51;103704.06;5064754;28;20036;-68
2021/03/01 01:22:25;;;;;;;3.50;1.63;;;;;;;0.58;54.14;103705.69;5046819;28;20028;-67
2021/03/01 01:24:50;;;;;;;29.90;1.83;;;;;;;0.54;54.59;103698.63;5048844;28;20025;-65
2021/03/01 01:27:16;;;;;;;34.97;3.05;;;;;;;0.55;54.33;103705.56;5050003;28;20632;-66
2021/03/01 01:29:41;;;;;;;10.07;1.70;;;;;;;-0.09;56.04;103699.06;5047304;28;20044;-68
2021/03/01 01:32:08;;;;;;;3.90;2.08;;;;;;;0.53;55.20;103702.03;5050368;28;20041;-66
2021/03/01 01:34:34;;;;;;;8.90;2.00;;;;;;;0.60;54.89;103704.09;5045267;28;20479;-67
2021/03/01 01:36:59;;;;;;;8.43;1.70;;;;;;;0.65;54.81;103702.59;5050430;28;20103;-67
2021/03/01 01:39:25;;;;;;;3.47;1.52;;;;;;;0.36;55.20;103698.66;5045627;28;20495;-67
2021/03/01 01:41:50;;;;;;;6.47;2.67;;;;;;;0.21;55.64;103688.50;5048251;28;20582;-66
2021/03/01 01:44:16;;;;;;;5.10;2.22;;;;;;;0.45;55.49;103689.66;5061230;28;20032;-68
2021/03/01 01:46:41;;;;;;;24.23;2.55;;;;;;;-0.14;56.21;103693.69;5049163;28;20056;-67
2021/03/01 01:49:07;;;;;;;12.00;2.50;;;;;;;-0.01;56.41;103679.75;5059415;28;20033;-66
2021/03/01 01:51:33;;;;;;;21.55;2.10;;;;;;;0.34;55.91;103687.41;5061161;28;20487;-66
2021/03/01 01:53:58;;;;;;;26.73;2.38;;;;;;;-0.05;56.16;103684.66;5034295;28;20041;-67
2021/03/01 01:56:24;;;;;;;10.80;2.22;;;;;;;0.20;55.84;103689.31;5046434;28;20102;-64
2021/03/01 01:58:49;;;;;;;35.80;2.13;;;;;;;0.09;55.89;103686.22;5046631;28;20041;-67
2021/03/01 02:01:15;;;;;;;9.20;2.70;;;;;;;0.09;55.33;103673.34;5046166;28;20041;-67
2021/03/01 02:03:49;;;;;;;25.02;2.92;;;;;;;0.12;55.62;103681.22;5044963;28;20036;-66
2021/03/01 02:06:42;;;;;;;70.72;3.08;;;;;;;-0.03;55.61;103678.78;5062482;28;20044;-66
2021/03/01 02:09:33;;;;;;;24.70;2.42;;;;;;;0.12;55.00;103678.63;5047335;28;20033;-67
2021/03/01 02:12:20;;;;;;;3.13;1.58;;;;;;;0.31;55.29;103680.41;5045557;28;20040;-66
2021/03/01 02:15:10;;;;;;;3.92;1.77;;;;;;;0.48;54.75;103673.50;5046982;28;20044;-67
2021/03/01 02:17:35;;;;;;;53.00;3.10;;;;;;;0.33;54.53;103672.78;5058369;28;20112;-67
2021/03/01 02:20:04;;;;;;;3.97;1.60;;;;;;;0.47;54.85;103682.03;5048542;28;20170;-67
2021/03/01 02:22:29;;;;;;;6.70;2.15;;;;;;;0.50;54.63;103677.00;5042972;28;20033;-67
2021/03/01 02:25:17;;;;;;;4.57;2.20;;;;;;;0.49;54.58;103675.25;5044604;28;20029;-67
2021/03/01 02:27:48;;;;;;;11.85;2.35;;;;;;;0.49;54.39;103680.41;5042229;28;20087;-67
2021/03/01 02:30:33;;;;;;;17.55;2.72;;;;;;;0.47;54.22;103682.91;5029866;28;20067;-67
2021/03/01 02:33:13;;;;;;;3.90;1.98;;;;;;;0.38;54.48;103679.03;5059081;28;20037;-67
2021/03/01 02:35:49;;;;;;;26.00;2.72;;;;;;;0.20;54.44;103672.19;5060846;28;20119;-69
2021/03/01 02:38:15;;;;;;;22.48;2.50;;;;;;;0.23;54.00;103672.34;5047173;28;20033;-67
2021/03/01 02:40:41;;;;;;;68.65;4.28;;;;;;;0.13;54.23;103669.25;5045985;28;20033;-66
2021/03/01 02:43:08;;;;;;;50.53;3.08;;;;;;;0.07;54.28;103674.97;5049300;28;20033;-69
2021/03/01 02:45:34;;;;;;;12.27;2.53;;;;;;;-0.14;54.88;103669.66;5047272;28;20040;-66
2021/03/01 02:48:01;;;;;;;3.90;1.60;;;;;;;0.18;54.37;103668.66;5026999;28;20059;-66
2021/03/01 02:50:28;;;;;;;12.50;2.35;;;;;;;0.20;54.56;103668.75;5060717;28;20032;-65
2021/03/01 02:52:55;;;;;;;11.25;2.30;;;;;;;0.15;54.32;103672.78;5043302;28;20422;-68
2021/03/01 02:55:23;;;;;;;4.93;2.10;;;;;;;0.12;54.12;103677.75;5045087;28;20051;-68
2021/03/01 02:57:51;;;;;;;25.27;2.45;;;;;;;-0.20;54.25;103680.50;5044145;28;20490;-67
2021/03/01 03:00:18;;;;;;;17.35;2.38;;;;;;;-0.00;54.14;103680.63;5044307;28;20057;-66
2021/03/01 03:02:44;;;;;;;16.27;2.55;;;;;;;0.13;54.19;103671.84;5026560;28;20033;-67
2021/03/01 03:05:13;;;;;;;46.75;3.60;;;;;;;-0.01;53.94;103681.44;5046209;28;20039;-68
2021/03/01 03:07:42;;;;;;;7.88;2.63;;;;;;;0.09;53.98;103678.50;5042873;28;20033;-67
2021/03/01 03:10:08;;;;;;;3.83;1.95;;;;;;;0.22;54.27;103668.00;5045018;28;20087;-66
2021/03/01 03:12:37;;;;;;;5.35;2.38;;;;;;;0.17;54.03;103674.63;5042936;28;20039;-66
2021/03/01 03:15:04;;;;;;;5.43;2.78;;;;;;;0.13;53.51;103675.28;5049439;28;20037;-66
2021/03/01 03:17:33;;;;;;;14.48;2.38;;;;;;;0.18;53.91;103673.81;5044600;28;20068;-67
2021/03/01 03:20:00;;;;;;;31.88;3.38;;;;;;;0.04;53.43;103674.84;5045178;28;20033;-67
2021/03/01 03:22:26;;;;;;;20.13;2.38;;;;;;;0.14;53.29;103674.44;5044089;28;20497;-66
2021/03/01 03:24:51;;;;;;;29.45;3.10;;;;;;;0.13;53.42;103669.25;5046201;28;20024;-67
2021/03/01 03:27:17;;;;;;;6.70;2.15;;;;;;;0.15;53.55;103665.94;5042828;28;20033;-66
2021/03/01 03:29:42;;;;;;;7.95;3.03;;;;;;;0.12;53.32;103670.91;5044972;28;20025;-66
2021/03/01 03:32:08;;;;;;;24.30;2.70;;;;;;;0.10;53.49;103672.56;5046854;28;20033;-67
2021/03/01 03:34:34;;;;;;;118.88;5.28;;;;;;;0.13;53.02;103674.41;5043601;28;20037;-67
2021/03/01 03:37:05;;;;;;;73.78;3.85;;;;;;;0.14;53.40;103682.16;5049144;28;20033;-67
2021/03/01 03:39:35;;;;;;;32.72;3.85;;;;;;;-0.15;53.99;103679.09;5048815;28;20102;-67
2021/03/01 03:42:02;;;;;;;23.40;2.13;;;;;;;-0.03;53.48;103677.91;5026791;28;20083;-67
2021/03/01 03:44:31;;;;;;;78.35;4.45;;;;;;;0.00;53.31;103671.22;5049927;28;20472;-65
2021/03/01 03:46:57;;;;;;;41.63;2.90;;;;;;;-0.38;53.60;103671.91;5031268;28;20087;-65
2021/03/01 03:49:25;;;;;;;47.67;3.60;;;;;;;-0.49;54.46;103665.31;5059211;28;20037;-67
2021/03/01 03:51:53;;;;;;;67.63;3.47;;;;;;;-0.58;54.04;103671.75;5042517;28;20796;-65
2021/03/01 03:54:21;;;;;;;23.30;2.78;;;;;;;-0.77;54.97;103675.06;5027483;28;20548;-67
2021/03/01 03:56:54;;;;;;;10.43;2.20;;;;;;;-0.63;54.47;103678.34;5029274;28;20033;-67
2021/03/01 03:59:22;;;;;;;19.98;2.65;;;;;;;-0.60;54.57;103678.50;5041204;28;20044;-68
2021/03/01 04:01:53;;;;;;;27.23;2.97;;;;;;;-0.42;53.95;103677.69;5040430;28;20877;-66
2021/03/01 04:04:21;;;;;;;30.58;2.88;;;;;;;-0.25;53.51;103676.84;5057658;28;20033;-68
2021/03/01 04:06:47;;;;;;;12.55;2.45;;;;;;;-0.28;53.40;103676.69;5041362;28;20103;-69
2021/03/01 04:09:15;;;;;;;29.73;3.17;;;;;;;-0.38;53.63;103682.16;5025606;28;20124;-66
2021/03/01 04:11:43;;;;;;;48.92;2.92;;;;;;;-0.33;53.49;103678.13;5046617;28;20090;-68
2021/03/01 04:14:11;;;;;;;12.05;2.17;;;;;;;-0.32;53.39;103677.34;5045120;28;20037;-68
2021/03/01 04:16:39;;;;;;;61.95;4.43;;;;;;;-0.39;53.62;103680.41;5042405;28;20119;-67
2021/03/01 04:19:06;;;;;;;19.02;2.25;;;;;;;-0.24;53.54;103690.56;5045455;28;20124;-66
2021/03/01 04:21:35;;;;;;;47.88;2.78;;;;;;;-0.35;53.05;103684.88;5045946;28;20643;-66
2021/03/01 04:24:02;;;;;;;16.00;2.22;;;;;;;-0.36;53.44;103689.16;5041822;28;20092;-68
2021/03/01 04:26:27;;;;;;;59.25;3.00;;;;;;;-0.48;53.33;103682.50;5029640;28;20958;-69
2021/03/01 04:28:53;;;;;;;27.27;2.35;;;;;;;-0.51;53.74;103688.38;5024070;28;20104;-69
2021/03/01 04:31:19;;;;;;;12.80;1.35;;;;;;;-0.32;53.29;103690.19;5042087;28;20045;-67
2021/03/01 04:33:48;;;;;;;4.72;1.52;;;;;;;-0.33;53.23;103685.84;5047021;28;20409;-67
2021/03/01 04:36:14;;;;;;;6.47;1.75;;;;;;;-0.22;53.71;103688.97;5059032;28;20033;-66
2021/03/01 04:38:39;;;;;;;28.48;2.78;;;;;;;-0.26;53.42;103679.31;5041508;28;20632;-67
2021/03/01 04:41:05;;;;;;;23.20;1.80;;;;;;;-0.41;52.74;103679.47;5049632;28;20032;-66
2021/03/01 04:43:34;;;;;;;3.20;1.40;;;;;;;-0.29;53.26;103674.03;5046198;28;20025;-68
2021/03/01 04:46:01;;;;;;;2.75;1.40;;;;;;;-0.38;53.12;103688.19;5049033;28;20409;-67
2021/03/01 04:48:30;;;;;;;33.25;2.53;;;;;;;-0.38;52.44;103689.88;5047058;28;20630;-69
2021/03/01 04:50:56;;;;;;;3.30;1.42;;;;;;;-0.46;53.10;103678.31;5046016;28;20613;-69
2021/03/01 04:53:23;;;;;;;29.13;2.53;;;;;;;-0.45;52.72;103680.97;5044867;28;20029;-65
2021/03/01 04:55:49;;;;;;;7.72;1.85;;;;;;;-0.58;52.83;103687.16;5043928;28;20041;-69
2021/03/01 04:58:16;;;;;;;4.18;1.25;;;;;;;-0.54;53.30;103682.22;5060036;28;20409;-67
2021/03/01 05:00:42;;;;;;;9.35;2.25;;;;;;;-0.61;52.58;103679.31;5060088;28;20060;-67
2021/03/01 05:03:08;;;;;;;7.57;1.98;;;;;;;-0.73;52.94;103681.22;5045252;28;20097;-66
2021/03/01 05:05:34;;;;;;;4.22;1.42;;;;;;;-0.62;53.04;103677.53;5044324;28;20063;-66
2021/03/01 05:08:05;;;;;;;13.43;1.83;;;;;;;-0.69;52.80;103678.03;5044017;28;20037;-69
2021/03/01 05:10:35;;;;;;;27.70;1.80;;;;;;;-0.90;52.60;103682.06;5044704;28;20037;-66
2021/03/01 05:13:00;;;;;;;12.18;1.60;;;;;;;-0.95;52.76;103689.53;5040507;28;20060;-68
2021/03/01 05:15:26;;;;;;;13.80;1.20;;;;;;;-0.95;53.47;103683.47;5060206;28;20029;-64
2021/03/01 05:17:51;;;;;;;24.25;2.05;;;;;;;-0.88;53.62;103677.88;5043153;28;20884;-68
2021/03/01 05:20:17;;;;;;;8.95;1.30;;;;;;;-0.85;53.04;103675.47;5042681;28;20037;-67
2021/03/01 05:22:43;;;;;;;23.70;1.60;;;;;;;-1.00;52.69;103684.09;5030805;28;20110;-68
2021/03/01 05:25:09;;;;;;;19.48;1.58;;;;;;;-1.16;52.64;103681.50;5042677;28;20029;-67
2021/03/01 05:27:35;;;;;;;27.35;1.90;;;;;;;-1.22;52.99;103679.50;5046555;28;20114;-66
2021/03/01 05:30:09;;;;;;;2.63;1.00;;;;;;;-1.24;53.07;103675.06;5031805;28;20090;-67
2021/03/01 05:32:35;;;;;;;3.85;0.88;;;;;;;-1.15;52.73;103675.59;5043338;28;20029;-67
2021/03/01 05:35:01;;;;;;;12.48;1.42;;;;;;;-1.16;52.65;103673.81;5045060;28;20040;-67
2021/03/01 05:37:26;;;;;;;16.27;1.17;;;;;;;-1.13;53.14;103673.06;5043516;28;20033;-67
2021/03/01 05:39:52;;;;;;;1.25;0.68;;;;;;;-1.11;52.98;103677.50;5045481;28;20044;-68
2021/03/01 05:42:20;;;;;;;10.68;1.02;;;;;;;-1.15;52.74;103673.00;5042489;28;20033;-66
2021/03/01 05:44:46;;;;;;;22.25;1.73;;;;;;;-1.08;52.51;103666.53;5043548;28;20044;-67
2021/03/01 05:47:11;;;;;;;11.45;1.42;;;;;;;-1.17;52.41;103667.78;5044956;28;20029;-67
2021/03/01 05:49:42;;;;;;;2.25;0.80;;;;;;;-1.22;52.90;103676.03;5045261;28;20066;-67
2021/03/01 05:52:09;;;;;;;2.17;1.00;;;;;;;-1.38;53.27;103677.75;5048435;28;20083;-67
2021/03/01 05:54:36;;;;;;;10.43;1.23;;;;;;;-1.19;53.26;103673.66;5043446;28;20044;-68
2021/03/01 05:57:06;;;;;;;12.80;0.82;;;;;;;-1.08;53.00;103672.53;5044618;28;20103;-66
2021/03/01 05:59:32;;;;;;;19.52;1.42;;;;;;;-1.07;53.37;103671.72;5043539;28;20097;-66
2021/03/01 06:01:58;;;;;;;15.35;1.38;;;;;;;-1.27;53.34;103665.53;5056790;28;20067;-66
2021/03/01 06:04:25;;;;;;;14.25;1.50;;;;;;;-1.31;53.58;103665.28;5043847;28;20057;-65
2021/03/01 06:06:51;;;;;;;2.50;0.90;;;;;;;-0.89;53.33;103663.25;5032393;28;20041;-68
2021/03/01 06:09:16;;;;;;;2.70;0.98;;;;;;;-1.04;53.66;103666.81;5043032;28;20044;-67
2021/03/01 06:11:42;;;;;;;2.25;0.93;;;;;;;-0.92;53.08;103652.84;5042870;28;20037;-67
2021/03/01 06:14:07;;;;;;;7.40;1.20;;;;;;;-0.80;53.11;103674.00;5047111;28;20037;-68
2021/03/01 06:16:33;;;;;;;2.25;1.05;;;;;;;-0.77;53.14;103674.19;5044995;28;20032;-69
2021/03/01 06:18:59;;;;;;;23.00;1.60;;;;;;;-0.83;53.30;103668.72;5047515;28;20032;-67
2021/03/01 06:21:25;;;;;;;2.83;1.45;;;;;;;-0.85;53.27;103670.34;5042053;28;20120;-66
2021/03/01 06:23:52;;;;;;;3.20;1.33;;;;;;;-0.81;53.25;103656.84;5048155;28;20044;-66
2021/03/01 06:26:32;;;;;;;85.47;3.92;;;;;;;-0.97;52.80;103658.63;5041350;28;20720;-67
2021/03/01 06:29:03;;;;;;;2.22;1.05;;;;;;;-0.83;53.71;103655.88;5029562;28;20024;-67
2021/03/01 06:31:39;;;;;;;3.22;1.10;;;;;;;-0.89;53.55;103659.00;5045492;28;20040;-66
2021/03/01 06:34:26;;;;;;;6.45;1.60;;;;;;;-0.82;53.59;103657.63;5045946;28;20044;-65
2021/03/01 06:36:57;;;;;;;8.50;1.42;;;;;;;-0.71;53.83;103660.78;5058132;28;20036;-69
2021/03/01 06:39:43;;;;;;;16.55;1.13;;;;;;;-0.64;53.38;103662.84;5058525;28;20063;-66
2021/03/01 06:42:22;;;;;;;14.45;1.75;;;;;;;-0.56;53.31;103674.41;5040065;28;20518;-67
2021/03/01 06:44:57;;;;;;;7.03;0.93;;;;;;;-0.57;53.30;103670.97;5057038;28;20071;-66
2021/03/01 06:47:49;;;;;;;10.98;1.67;;;;;;;-0.63;53.08;103673.22;5043540;28;20036;-66
2021/03/01 06:50:30;;;;;;;2.17;1.15;;;;;;;-0.53;53.47;103664.28;5042214;28;20029;-67
2021/03/01 06:52:56;;;;;;;8.77;1.33;;;;;;;-0.41;53.18;103661.47;5040857;28;20116;-68
2021/03/01 06:55:22;;;;;;;4.63;1.33;;;;;;;-0.43;52.62;103661.38;5041050;28;20186;-68
2021/03/01 06:57:47;;;;;;;2.53;1.02;;;;;;;-0.18;52.58;103662.59;5041809;28;20679;-67
2021/03/01 07:00:13;;;;;;;4.45;1.90;;;;;;;-0.24;52.52;103665.75;5038525;28;20103;-67
2021/03/01 07:02:40;;;;;;;3.97;1.58;;;;;;;-0.36;53.02;103662.56;5055272;28;20076;-67
2021/03/01 07:05:06;;;;;;;21.13;1.67;;;;;;;-0.30;52.97;103665.47;5040806;28;20052;-68
2021/03/01 07:07:36;;;;;;;58.70;2.92;;;;;;;-0.38;52.94;103659.03;5039220;28;20025;-65
2021/03/01 07:10:04;;;;;;;11.73;1.13;;;;;;;-0.35;53.62;103666.91;5028490;28;20538;-65
2021/03/01 07:12:38;;;;;;;17.98;1.60;;;;;;;-0.15;52.80;103662.75;5055370;28;20064;-67
2021/03/01 07:15:08;;;;;;;15.23;1.48;;;;;;;-0.04;52.09;103668.41;5045658;28;20134;-67
2021/03/01 07:17:37;;;;;;;10.27;1.63;;;;;;;-0.02;52.10;103665.13;5043373;28;20044;-67
2021/03/01 07:20:03;;;;;;;2.42;0.80;;;;;;;0.20;52.61;103672.19;5029041;28;20034;-65
2021/03/01 07:22:29;;;;;;;37.75;1.60;;;;;;;0.04;52.17;103673.13;5040368;28;20033;-66
2021/03/01 07:24:55;;;;;;;36.03;1.85;;;;;;;-0.15;52.32;103676.50;5041719;28;20040;-65
2021/03/01 07:27:25;;;;;;;27.83;1.77;;;;;;;-0.02;52.08;103689.94;5043410;28;20033;-65
2021/03/01 07:29:54;;;;;;;2.38;0.85;;;;;;;0.02;52.78;103686.72;5046079;28;20706;-67
2021/03/01 07:32:21;;;;;;;5.78;1.38;;;;;;;0.17;53.08;103687.47;5026415;28;20128;-67
2021/03/01 07:34:49;;;;;;;16.25;1.63;;;;;;;0.22;52.58;103691.16;5041471;28;20040;-67
2021/03/01 07:37:14;;;;;;;2.80;1.17;;;;;;;0.20;52.96;103687.63;5026556;28;20037;-67
2021/03/01 07:39:40;;;;;;;10.63;1.65;;;;;;;0.16;51.97;103693.41;5038340;28;20047;-66
2021/03/01 07:42:06;;;;;;;30.15;1.58;;;;;;;0.14;52.21;103682.16;5038855;28;20060;-69
2021/03/01 07:44:33;;;;;;;33.55;1.85;;;;;;;0.19;52.17;103680.72;5045375;28;20039;-67
2021/03/01 07:47:01;;;;;;;56.75;2.13;;;;;;;0.21;51.66;103689.41;5046723;28;20038;-67
2021/03/01 07:49:48;;;;;;;19.73;1.77;;;;;;;0.30;52.05;103686.41;5040508;28;20022;-67
2021/03/01 07:52:19;;;;;;;6.10;1.17;;;;;;;0.26;52.07;103681.91;5031212;28;20041;-66
2021/03/01 07:55:09;;;;;;;23.17;1.35;;;;;;;0.13;52.04;103685.56;5060910;28;20063;-68
2021/03/01 07:57:37;;;;;;;1.90;0.90;;;;;;;-0.03;52.35;103690.78;5043703;28;20102;-67
2021/03/01 08:00:26;;;;;;;22.80;1.35;;;;;;;0.15;52.33;103691.66;5045870;28;20041;-68
2021/03/01 08:02:52;;;;;;;1.85;0.60;;;;;;;0.18;52.47;103689.22;5042003;28;20100;-66
2021/03/01 08:05:25;;;;;;;2.28;0.90;;;;;;;0.37;51.91;103687.56;5038224;28;20672;-66
2021/03/01 08:07:51;;;;;;;2.58;1.10;;;;;;;0.36;51.51;103688.34;5046594;28;20383;-66
2021/03/01 08:10:40;;;;;;;5.10;1.60;;;;;;;0.32;51.40;103691.59;5046087;28;20036;-67
2021/03/01 08:13:07;;;;;;;10.60;1.20;;;;;;;0.35;51.65;103691.75;5035577;28;20049;-68
2021/03/01 08:15:34;;;;;;;3.78;1.33;;;;;;;0.31;51.78;103694.97;5041557;28;20040;-67
2021/03/01 08:18:00;;;;;;;30.23;1.85;;;;;;;0.26;52.15;103703.34;5031745;28;20040;-67
2021/03/01 08:20:28;;;;;;;3.30;1.58;;;;;;;0.17;52.60;103695.19;5046280;28;20032;-67
2021/03/01 08:28:16;;;;;;;9.32;1.45;;;;;;;0.42;51.86;103694.69;5034147;28;20113;-67
2021/03/01 08:30:45;;;;;;;4.60;1.40;;;;;;;0.42;52.11;103696.38;5058192;28;20036;-67
2021/03/01 08:33:10;;;;;;;13.68;1.38;;;;;;;0.46;51.97;103701.75;5040006;28;20033;-67
2021/03/01 08:35:46;;;;;;;7.45;1.27;;;;;;;0.34;52.09;103700.25;5039926;28;20071;-68
2021/03/01 08:38:14;;;;;;;6.10;2.28;;;;;;;0.46;51.61;103695.72;5047807;28;20029;-66
2021/03/01 08:40:54;;;;;;;20.02;2.38;;;;;;;0.55;51.26;103693.56;5026711;28;20033;-66
2021/03/01 08:43:34;;;;;;;33.80;1.83;;;;;;;0.51;51.80;103701.97;5040944;28;20037;-66
2021/03/01 08:46:00;;;;;;;1.50;0.60;;;;;;;0.42;52.19;103698.94;5039263;28;20033;-67
2021/03/01 08:48:26;;;;;;;2.22;1.50;;;;;;;0.58;52.47;103696.28;5040310;28;20021;-68
2021/03/01 08:50:53;;;;;;;16.10;1.30;;;;;;;0.45;52.59;103704.22;5046775;28;20037;-65
2021/03/01 08:53:24;;;;;;;8.48;1.48;;;;;;;0.54;52.23;103699.50;5047894;28;20033;-66
2021/03/01 08:55:51;;;;;;;29.20;1.85;;;;;;;0.61;52.13;103708.41;5039215;28;20041;-67
2021/03/01 08:58:18;;;;;;;35.50;2.75;;;;;;;0.50;52.11;103700.19;5040134;28;20572;-67
2021/03/01 09:00:50;;;;;;;12.10;1.40;;;;;;;0.66;52.50;103700.09;5035950;28;20091;-67
2021/03/01 09:03:16;;;;;;;2.55;0.63;;;;;;;0.79;52.02;103695.50;5041173;28;20048;-66
2021/03/01 09:05:49;;;;;;;5.22;0.90;;;;;;;0.90;51.40;103695.22;5039366;28;20037;-67
2021/03/01 09:08:22;;;;;;;;;;;;;;;0.81;51.18;103696.47;5042228;28;20057;-67
2021/03/01 09:10:48;;;;;;;9.48;1.00;;;;;;;0.77;52.49;103697.13;5043745;28;20054;-66
2021/03/01 09:13:19;;;;;;;5.00;1.13;;;;;;;0.92;52.55;103697.84;5036799;28;20033;-67
2021/03/01 09:15:45;;;;;;;5.72;0.82;;;;;;;0.94;52.06;103701.38;5038761;28;20037;-67
2021/03/01 09:18:11;;;;;;;22.60;0.95;;;;;;;0.96;52.35;103698.88;5038609;28;20033;-66
2021/03/01 09:20:41;;;;;;;37.38;1.45;;;;;;;1.30;50.89;103698.66;5052757;28;20029;-66
2021/03/01 09:23:07;;;;;;;4.85;1.13;;;;;;;1.48;51.66;103696.03;5038811;28;20025;-66
2021/03/01 09:25:34;;;;;;;1.88;0.50;;;;;;;1.67;51.30;103708.03;5039470;28;20102;-65
2021/03/01 09:28:01;;;;;;;7.82;1.02;;;;;;;1.69;51.14;103701.25;5043055;28;20033;-67
2021/03/01 09:30:27;;;;;;;10.27;1.38;;;;;;;1.76;50.34;103710.13;5040710;28;20679;-66
2021/03/01 09:32:58;;;;;;;9.18;0.98;;;;;;;1.74;49.75;103710.06;5026218;28;20041;-66
2021/03/01 09:35:25;;;;;;;25.83;1.45;;;;;;;1.80;50.26;103701.72;5041676;28;20041;-65
2021/03/01 09:37:51;;;;;;;4.25;1.30;;;;;;;1.93;50.19;103704.88;5045702;28;20037;-65
2021/03/01 09:40:19;;;;;;;37.60;2.05;;;;;;;1.88;48.93;103708.06;5049428;28;20490;-67
2021/03/01 09:42:50;;;;;;;10.50;1.45;;;;;;;1.58;50.43;103711.09;5028897;28;20037;-67
2021/03/01 09:45:16;;;;;;;2.03;0.73;;;;;;;1.76;50.69;103704.97;5046145;28;20489;-66
2021/03/01 09:47:42;;;;;;;2.00;0.80;;;;;;;1.92;51.08;103705.66;5042904;28;20025;-67
2021/03/01 09:50:09;;;;;;;4.93;1.15;;;;;;;2.10;49.84;103702.09;5045536;28;20040;-68
2021/03/01 09:52:35;;;;;;;26.73;1.25;;;;;;;1.81;50.43;103706.91;5042282;28;20487;-67
2021/03/01 09:55:02;;;;;;;12.68;1.20;;;;;;;1.60;51.34;103699.16;5049081;28;20044;-66
2021/03/01 09:57:29;;;;;;;14.15;1.27;;;;;;;1.73;52.37;103698.00;5048341;28;20063;-66
2021/03/01 09:59:54;;;;;;;2.17;0.95;;;;;;;2.01;51.89;103700.00;5046761;28;20028;-68
2021/03/01 10:02:25;;;;;;;8.55;0.90;;;;;;;1.86;51.79;103695.13;5045858;28;20029;-66
2021/03/01 10:05:07;;;;;;;6.78;0.90;;;;;;;1.86;50.74;103689.97;5045511;28;20121;-66
2021/03/01 10:07:33;;;;;;;29.58;2.25;;;;;;;1.89;51.10;103699.50;5046557;28;20403;-66
2021/03/01 10:10:14;;;;;;;3.67;1.30;;;;;;;2.24;51.61;103698.38;5046003;28;20044;-67
2021/03/01 10:12:46;;;;;;;8.55;1.27;;;;;;;2.43;50.84;103699.97;5046725;28;20098;-67
2021/03/01 10:15:13;;;;;;;3.10;1.00;;;;;;;2.62;50.81;103695.50;5045052;28;20041;-66
2021/03/01 10:17:38;;;;;;;9.25;2.00;;;;;;;2.63;50.06;103687.84;5046995;28;20048;-66
2021/03/01 10:20:14;;;;;;;9.68;1.65;;;;;;;2.43;49.97;103689.66;5050905;28;20110;-68
2021/03/01 10:23:04;;;;;;;9.75;2.20;;;;;;;2.24;50.33;103687.16;5047078;28;20590;-67
2021/03/01 10:25:40;;;;;;;4.88;1.70;;;;;;;2.37;50.98;103694.56;5045628;28;20053;-67
2021/03/01 10:28:24;;;;;;;7.88;1.98;;;;;;;2.38;50.10;103695.44;5050158;28;20033;-67
2021/03/01 10:31:07;;;;;;;18.95;3.97;;;;;;;2.38;50.75;103695.44;5062471;28;20512;-66
2021/03/01 10:34:02;;;;;;;15.10;3.45;;;;;;;2.59;51.05;103688.53;5046441;28;20488;-65
2021/03/01 10:36:28;;;;;;;36.50;3.45;;;;;;;2.65;49.66;103695.66;5048066;28;20037;-66
2021/03/01 10:38:58;;;;;;;13.68;3.50;;;;;;;2.47;50.81;103703.56;5051143;28;20096;-68
2021/03/01 10:41:26;;;;;;;10.70;3.80;;;;;;;2.53;51.56;103693.47;5050920;28;20033;-66
2021/03/01 10:43:57;;;;;;;35.25;3.72;;;;;;;2.67;50.67;103697.47;5053461;28;20556;-67
2021/03/01 10:46:36;;;;;;;14.80;3.93;;;;;;;3.04;50.90;103700.53;5033164;28;20103;-66
2021/03/01 10:49:15;;;;;;;12.82;3.92;;;;;;;3.24;50.74;103690.94;5049498;28;20044;-67
2021/03/01 10:51:41;;;;;;;20.67;3.45;;;;;;;3.39;49.08;103699.28;5049174;28;20112;-68
2021/03/01 10:54:06;;;;;;;9.65;3.53;;;;;;;3.12;50.89;103693.97;5041425;28;20928;-68
2021/03/01 10:56:32;;;;;;;26.33;4.20;;;;;;;3.29;50.05;103695.50;5061897;28;20067;-65
2021/03/01 10:58:57;;;;;;;8.43;3.05;;;;;;;3.40;50.38;103698.44;5043683;28;20331;-67
2021/03/01 11:01:33;;;;;;;9.23;3.13;;;;;;;3.45;50.49;103701.16;5042137;28;20056;-66
2021/03/01 11:03:59;;;;;;;10.25;3.55;;;;;;;3.33;49.46;103699.03;5037886;28;20075;-68
2021/03/01 11:06:24;;;;;;;7.63;3.20;;;;;;;3.38;49.24;103694.91;5042414;28;20821;-67
2021/03/01 11:08:50;;;;;;;8.73;3.35;;;;;;;3.22;49.80;103700.34;5043418;28;20045;-67
2021/03/01 11:11:16;;;;;;;18.77;3.60;;;;;;;3.38;50.81;103693.22;5054984;28;20130;-67
2021/03/01 11:13:41;;;;;;;8.90;4.15;;;;;;;3.86;50.61;103689.66;5039977;28;20033;-67
2021/03/01 11:16:07;;;;;;;7.97;4.10;;;;;;;3.87;50.84;103688.81;5044425;28;20115;-66
2021/03/01 11:18:32;;;;;;;8.40;3.80;;;;;;;4.04;50.09;103689.38;5047054;28;20029;-66
2021/03/01 11:20:57;;;;;;;9.18;3.20;;;;;;;4.05;50.16;103695.44;5044460;28;20037;-67
2021/03/01 11:23:23;;;;;;;8.07;3.42;;;;;;;4.21;50.06;103689.94;5056108;28;20494;-65
2021/03/01 11:25:48;;;;;;;7.63;2.67;;;;;;;3.97;49.58;103698.66;5043535;28;20048;-67
2021/03/01 11:28:14;;;;;;;8.68;3.70;;;;;;;4.14;49.89;103694.06;5058088;28;20029;-67
2021/03/01 11:30:40;;;;;;;8.77;3.55;;;;;;;4.10;49.71;103689.59;5044655;28;20081;-66
2021/03/01 11:33:07;;;;;;;9.43;4.30;;;;;;;4.17;50.63;103693.25;5045446;28;20127;-68
2021/03/01 11:35:33;;;;;;;5.80;2.22;;;;;;;4.36;50.49;103700.78;5039003;28;20037;-64
2021/03/01 11:37:59;;;;;;;13.43;2.88;;;;;;;4.31;49.59;103697.16;5022697;28;20041;-69
2021/03/01 11:40:24;;;;;;;11.77;3.35;;;;;;;4.22;50.69;103689.09;5024966;28;20402;-67